Time;durP1;ratioP1;P1;durP2;ratioP2;P2;SDS_P1;SDS_P2;PMS_P1;PMS_P2;Temp;Humidity;BMP_temperature;BMP_pressure;BME280_temperature;BME280_humidity;BME280_pressure;Samples;Min_cycle;Max_cycle;Signal;HPM_P1;HPM_P2
2022/07/12 00:02:03;;;;;;;1.40;1.30;;;14.50;99.90;;;;;;5096790;28;20530;-42
2022/07/12 00:04:29;;;;;;;1.40;1.20;;;14.40;99.90;;;;;;5097066;28;20535;-41
2022/07/12 00:06:55;;;;;;;1.30;1.20;;;14.40;99.90;;;;;;5114858;28;20182;-43
2022/07/12 00:09:20;;;;;;;1.87;1.40;;;14.40;99.90;;;;;;5115186;28;20673;-41
2022/07/12 00:11:46;;;;;;;1.07;1.00;;;14.30;99.90;;;;;;5115013;28;20701;-42
2022/07/12 00:14:12;;;;;;;2.03;1.03;;;14.30;99.90;;;;;;5115002;28;20652;-42
2022/07/12 00:16:38;;;;;;;0.93;0.93;;;14.20;99.90;;;;;;5114777;28;20660;-42
2022/07/12 00:19:04;;;;;;;1.20;1.10;;;14.20;99.90;;;;;;5115861;28;21894;-42
2022/07/12 00:21:29;;;;;;;1.40;1.30;;;14.10;99.90;;;;;;5114581;28;20186;-44
2022/07/12 00:23:55;;;;;;;1.63;1.53;;;14.00;99.90;;;;;;5114449;28;20665;-44
2022/07/12 00:26:21;;;;;;;2.60;1.50;;;14.00;99.90;;;;;;5114198;28;20228;-42
2022/07/12 00:28:47;;;;;;;1.87;1.70;;;14.00;99.90;;;;;;5114370;28;20638;-43
2022/07/12 00:31:13;;;;;;;1.87;1.50;;;13.90;99.90;;;;;;5114531;28;20188;-43
2022/07/12 00:33:38;;;;;;;5.43;1.80;;;13.90;99.90;;;;;;5114826;28;20189;-42
2022/07/12 00:36:04;;;;;;;1.50;1.40;;;13.90;99.90;;;;;;5095896;28;20586;-43
2022/07/12 00:38:30;;;;;;;2.53;1.83;;;13.80;99.90;;;;;;5114390;28;20235;-42
2022/07/12 00:40:55;;;;;;;1.70;1.43;;;13.80;99.90;;;;;;5114619;28;20194;-43
2022/07/12 00:43:21;;;;;;;1.67;1.57;;;13.70;99.90;;;;;;5095967;28;20182;-43
2022/07/12 00:45:47;;;;;;;2.90;1.67;;;13.70;99.90;;;;;;5114214;28;20182;-43
2022/07/12 00:48:13;;;;;;;2.53;1.47;;;13.70;99.90;;;;;;5114097;28;20648;-43
2022/07/12 00:50:39;;;;;;;2.53;1.70;;;13.70;99.90;;;;;;5114023;28;20696;-42
2022/07/12 00:53:05;;;;;;;2.93;1.77;;;13.60;99.90;;;;;;5113927;28;20206;-43
2022/07/12 00:55:31;;;;;;;1.60;1.50;;;13.60;99.90;;;;;;5114054;28;20240;-43
2022/07/12 00:57:57;;;;;;;3.47;1.50;;;13.50;99.90;;;;;;5114195;28;20187;-42
2022/07/12 01:00:25;;;;;;;2.17;1.53;;;13.50;99.90;;;;;;5095577;28;20226;-42
2022/07/12 01:02:54;;;;;;;1.60;1.30;;;13.50;99.90;;;;;;5113877;28;20177;-44
2022/07/12 01:05:20;;;;;;;1.60;1.20;;;13.40;99.90;;;;;;5096042;28;20180;-44
2022/07/12 01:07:45;;;;;;;2.77;1.50;;;13.40;99.90;;;;;;5114129;28;20193;-39
2022/07/12 01:10:12;;;;;;;4.50;1.70;;;13.40;99.90;;;;;;5113963;28;20220;-41
2022/07/12 01:12:37;;;;;;;5.00;1.90;;;13.30;99.90;;;;;;5113608;28;20216;-41
2022/07/12 01:15:07;;;;;;;2.63;1.80;;;13.30;99.90;;;;;;5113857;28;20180;-41
2022/07/12 01:17:33;;;;;;;3.13;1.60;;;13.20;99.90;;;;;;5113714;28;20189;-39
2022/07/12 01:19:59;;;;;;;1.63;1.53;;;13.20;99.90;;;;;;5113649;28;20199;-40
2022/07/12 01:22:30;;;;;;;3.17;1.73;;;13.20;99.90;;;;;;5113930;28;20181;-40
2022/07/12 01:24:56;;;;;;;1.67;1.57;;;13.10;99.90;;;;;;5113898;28;20171;-41
2022/07/12 01:27:21;;;;;;;2.43;1.50;;;13.20;99.90;;;;;;5113661;28;20314;-42
2022/07/12 01:29:47;;;;;;;3.00;1.50;;;13.10;99.90;;;;;;5113468;28;20233;-40
2022/07/12 01:32:25;;;;;;;2.73;1.47;;;13.10;99.90;;;;;;5113557;28;20689;-40
2022/07/12 01:34:56;;;;;;;1.70;1.60;;;13.10;99.90;;;;;;5113818;28;20504;-40
2022/07/12 01:37:23;;;;;;;1.83;1.73;;;13.10;99.90;;;;;;5113459;28;20259;-40
2022/07/12 01:39:52;;;;;;;2.93;1.80;;;13.10;99.90;;;;;;5115574;28;20189;-38
2022/07/12 01:42:18;;;;;;;1.70;1.60;;;13.00;99.90;;;;;;5117612;28;20188;-39
2022/07/12 01:44:44;;;;;;;1.83;1.57;;;13.00;99.90;;;;;;5117755;28;20178;-40
2022/07/12 01:47:10;;;;;;;1.60;1.50;;;12.90;99.90;;;;;;5117485;28;20588;-40
2022/07/12 01:49:35;;;;;;;1.83;1.73;;;13.00;99.90;;;;;;5117629;28;20194;-40
2022/07/12 01:52:01;;;;;;;4.07;1.67;;;12.90;99.90;;;;;;5117379;28;20243;-40
2022/07/12 01:54:27;;;;;;;2.73;1.80;;;12.90;99.90;;;;;;5117676;28;20591;-39
2022/07/12 01:56:52;;;;;;;2.97;2.23;;;12.90;99.90;;;;;;5117358;28;20209;-39
2022/07/12 01:59:19;;;;;;;2.43;2.00;;;12.90;99.90;;;;;;5098941;28;20206;-41
2022/07/12 02:01:45;;;;;;;2.57;2.10;;;12.80;99.90;;;;;;5117236;28;20686;-40
2022/07/12 02:04:11;;;;;;;5.53;2.97;;;12.80;99.90;;;;;;5117232;28;20189;-39
2022/07/12 02:06:38;;;;;;;4.37;2.43;;;12.80;99.90;;;;;;5117140;28;20261;-40
2022/07/12 02:09:04;;;;;;;4.93;2.50;;;12.70;99.90;;;;;;5117075;28;20229;-40
2022/07/12 02:11:30;;;;;;;4.30;2.70;;;12.70;99.90;;;;;;5116991;28;20657;-40
2022/07/12 02:13:56;;;;;;;4.73;2.13;;;12.60;99.90;;;;;;5117409;28;20174;-41
2022/07/12 02:16:22;;;;;;;1.80;1.70;;;12.60;99.90;;;;;;5117693;28;20185;-42
2022/07/12 02:18:47;;;;;;;3.03;2.10;;;12.60;99.90;;;;;;5117128;28;20231;-41
2022/07/12 02:21:13;;;;;;;9.77;2.60;;;12.50;99.90;;;;;;5117865;28;20174;-42
2022/07/12 02:23:38;;;;;;;2.37;2.17;;;12.50;99.90;;;;;;5117402;28;20626;-40
2022/07/12 02:26:04;;;;;;;4.40;1.90;;;12.40;99.90;;;;;;5118759;28;20201;-43
2022/07/12 02:28:31;;;;;;;2.20;1.93;;;12.40;99.90;;;;;;5119483;28;20198;-43
2022/07/12 02:30:57;;;;;;;3.40;2.07;;;12.40;99.90;;;;;;5118687;28;20199;-42
2022/07/12 02:33:23;;;;;;;3.37;1.57;;;12.30;99.90;;;;;;5116820;28;20289;-42
2022/07/12 02:35:48;;;;;;;2.23;1.53;;;12.30;99.90;;;;;;5116709;28;20225;-42
2022/07/12 02:38:14;;;;;;;2.40;1.20;;;12.30;99.90;;;;;;5117434;28;20231;-43
2022/07/12 02:40:55;;;;;;;3.40;1.23;;;12.30;99.90;;;;;;5117025;28;20247;-43
2022/07/12 02:43:30;;;;;;;1.97;1.30;;;12.30;99.90;;;;;;5117454;28;20219;-43
2022/07/12 02:46:04;;;;;;;1.37;1.27;;;12.20;99.90;;;;;;5119583;28;20186;-43
2022/07/12 02:48:29;;;;;;;3.53;1.30;;;12.20;99.90;;;;;;5120629;28;20171;-42
2022/07/12 02:50:55;;;;;;;3.30;1.70;;;12.10;99.90;;;;;;5120306;28;20335;-43
2022/07/12 02:53:21;;;;;;;3.93;1.80;;;12.10;99.90;;;;;;5119763;28;20563;-43
2022/07/12 02:55:47;;;;;;;2.83;1.87;;;12.10;99.90;;;;;;5118962;28;20259;-43
2022/07/12 02:58:12;;;;;;;6.00;1.70;;;12.10;99.90;;;;;;5116107;28;20210;-42
2022/07/12 03:00:38;;;;;;;2.90;1.50;;;12.10;99.90;;;;;;5116124;28;20201;-43
2022/07/12 03:03:07;;;;;;;1.83;1.43;;;12.00;99.90;;;;;;5116957;28;20200;-44
2022/07/12 03:05:36;;;;;;;2.00;1.23;;;12.00;99.90;;;;;;5116374;28;20174;-43
2022/07/12 03:08:05;;;;;;;2.90;1.40;;;11.90;99.90;;;;;;5116262;28;20182;-43
2022/07/12 03:10:32;;;;;;;4.30;1.17;;;11.90;99.90;;;;;;5116052;28;20590;-43
2022/07/12 03:12:57;;;;;;;1.73;1.03;;;11.90;99.90;;;;;;5115901;28;20205;-42
2022/07/12 03:15:23;;;;;;;1.37;1.20;;;11.80;99.90;;;;;;5115927;28;20182;-43
2022/07/12 03:17:48;;;;;;;1.40;1.30;;;11.80;99.90;;;;;;5115788;28;20175;-42
2022/07/12 03:20:14;;;;;;;1.77;1.37;;;11.80;99.90;;;;;;5115914;28;20204;-42
2022/07/12 03:22:48;;;;;;;3.20;1.17;;;11.80;99.90;;;;;;5115659;28;20594;-42
2022/07/12 03:25:14;;;;;;;1.60;1.13;;;11.80;99.90;;;;;;5115592;28;20162;-44
2022/07/12 03:27:40;;;;;;;4.33;1.30;;;11.70;99.90;;;;;;5115562;28;20174;-41
2022/07/12 03:30:06;;;;;;;2.70;1.30;;;11.70;99.90;;;;;;5115433;28;20288;-42
2022/07/12 03:32:32;;;;;;;1.97;1.27;;;11.60;99.90;;;;;;5115619;28;20206;-41
2022/07/12 03:34:58;;;;;;;1.47;1.37;;;11.60;99.90;;;;;;5097135;28;20190;-44
2022/07/12 03:37:24;;;;;;;1.97;1.23;;;11.60;99.90;;;;;;5115253;28;20269;-43
2022/07/12 03:39:49;;;;;;;1.10;1.00;;;11.60;99.90;;;;;;5115436;28;20193;-43
2022/07/12 03:42:15;;;;;;;0.77;0.77;;;11.60;99.90;;;;;;5115256;28;20178;-42
2022/07/12 03:44:41;;;;;;;1.00;0.70;;;11.60;99.90;;;;;;5115218;28;20245;-43
2022/07/12 03:47:06;;;;;;;4.47;0.70;;;11.60;99.90;;;;;;5115179;28;20174;-43
2022/07/12 03:49:32;;;;;;;1.20;0.90;;;11.60;99.90;;;;;;5115311;28;20224;-42
2022/07/12 03:51:58;;;;;;;2.50;1.33;;;11.60;99.90;;;;;;5115221;28;20292;-42
2022/07/12 03:54:23;;;;;;;2.23;1.67;;;11.50;99.90;;;;;;5115264;28;20166;-41
2022/07/12 03:59:34;;;;;;;5.50;2.57;;;11.60;99.90;;;;;;5114974;28;20695;-43
2022/07/12 04:02:01;;;;;;;10.67;2.80;;;11.60;99.90;;;;;;5114082;28;20189;-44
2022/07/12 04:04:27;;;;;;;4.43;3.03;;;11.60;99.90;;;;;;5115089;28;20190;-43
2022/07/12 04:06:52;;;;;;;3.97;3.37;;;11.60;99.90;;;;;;5115174;28;20582;-42
2022/07/12 04:09:18;;;;;;;6.70;3.47;;;11.50;99.90;;;;;;5114691;28;20226;-41
2022/07/12 04:11:44;;;;;;;4.77;3.30;;;11.50;99.90;;;;;;5115151;28;20266;-42
2022/07/12 04:14:09;;;;;;;7.23;3.17;;;11.50;99.90;;;;;;5114618;28;20177;-41
2022/07/12 04:16:35;;;;;;;6.23;3.10;;;11.50;99.90;;;;;;5096345;28;20183;-43
2022/07/12 04:19:01;;;;;;;4.47;2.30;;;11.50;99.90;;;;;;5114765;28;20182;-42
2022/07/12 04:21:26;;;;;;;3.47;2.00;;;11.50;99.90;;;;;;5114499;28;20176;-43
2022/07/12 04:23:52;;;;;;;3.37;2.13;;;11.40;99.90;;;;;;5114489;28;20180;-44
2022/07/12 04:26:18;;;;;;;11.00;2.57;;;11.50;99.90;;;;;;5114389;28;20181;-40
2022/07/12 04:28:44;;;;;;;6.93;2.73;;;11.50;99.90;;;;;;5096186;28;20512;-42
2022/07/12 04:31:09;;;;;;;9.17;3.17;;;11.60;99.90;;;;;;5114876;28;20195;-44
2022/07/12 04:33:35;;;;;;;10.03;2.37;;;11.60;99.90;;;;;;5114218;28;20216;-42
2022/07/12 04:36:01;;;;;;;6.87;2.10;;;11.70;99.90;;;;;;5114234;28;20668;-43
2022/07/12 04:38:27;;;;;;;3.57;1.80;;;11.70;99.90;;;;;;5114850;28;20173;-43
2022/07/12 04:40:52;;;;;;;8.73;2.23;;;11.80;99.90;;;;;;5099150;28;20201;-44
2022/07/12 04:43:18;;;;;;;3.37;1.83;;;11.80;99.90;;;;;;5114261;28;20261;-44
2022/07/12 04:45:44;;;;;;;4.00;1.97;;;11.90;99.90;;;;;;5095923;28;20215;-43
2022/07/12 04:48:11;;;;;;;3.70;1.60;;;11.90;99.90;;;;;;5114442;28;20189;-43
2022/07/12 04:50:36;;;;;;;6.20;1.57;;;11.90;99.90;;;;;;5113918;28;20235;-43
2022/07/12 04:53:02;;;;;;;4.83;1.80;;;12.00;99.90;;;;;;5114172;28;20229;-43
2022/07/12 04:55:28;;;;;;;3.83;1.63;;;12.00;99.90;;;;;;5114247;28;20169;-43
2022/07/12 04:57:54;;;;;;;8.17;3.27;;;12.10;99.90;;;;;;5118134;28;20172;-42
2022/07/12 05:00:20;;;;;;;5.67;1.90;;;12.10;99.90;;;;;;5114154;28;20551;-42
2022/07/12 05:02:47;;;;;;;7.27;2.00;;;12.20;99.90;;;;;;5117227;28;20171;-43
2022/07/12 05:05:12;;;;;;;6.30;2.40;;;12.30;99.90;;;;;;5114015;28;20222;-44
2022/07/12 05:07:38;;;;;;;7.27;2.20;;;12.30;99.90;;;;;;5114205;28;20264;-41
2022/07/12 05:10:04;;;;;;;8.07;2.60;;;12.40;99.90;;;;;;5114108;28;20274;-42
2022/07/12 05:12:30;;;;;;;2.90;2.60;;;12.60;99.90;;;;;;5113720;28;20207;-42
2022/07/12 05:14:55;;;;;;;7.13;3.33;;;12.60;99.90;;;;;;5113769;28;20177;-43
2022/07/12 05:17:21;;;;;;;5.00;3.37;;;12.70;99.90;;;;;;5113761;28;20263;-42
2022/07/12 05:19:47;;;;;;;10.97;4.60;;;12.80;99.90;;;;;;5113960;28;20198;-41
2022/07/12 05:22:12;;;;;;;9.30;4.07;;;12.90;99.90;;;;;;5113911;28;20187;-41
2022/07/12 05:24:38;;;;;;;7.27;4.23;;;13.10;99.90;;;;;;5113962;28;20610;-42
2022/07/12 05:27:04;;;;;;;8.67;4.57;;;13.20;99.90;;;;;;5113956;28;20177;-42
2022/07/12 05:29:29;;;;;;;10.77;4.73;;;13.30;99.90;;;;;;5113584;28;20227;-42
2022/07/12 05:31:56;;;;;;;10.90;4.40;;;13.40;99.90;;;;;;5117307;28;20205;-42
2022/07/12 05:34:22;;;;;;;11.53;4.77;;;13.40;99.90;;;;;;5113481;28;20271;-42
2022/07/12 05:36:47;;;;;;;11.43;5.63;;;13.50;99.90;;;;;;5095187;28;20280;-42
2022/07/12 05:39:13;;;;;;;7.07;4.70;;;13.60;99.90;;;;;;5095275;28;20606;-42
2022/07/12 05:41:38;;;;;;;16.47;5.07;;;13.80;99.90;;;;;;5113499;28;20171;-42
2022/07/12 05:44:04;;;;;;;5.70;4.83;;;13.90;99.90;;;;;;5113723;28;20184;-42
2022/07/12 05:46:31;;;;;;;10.50;5.20;;;14.00;99.90;;;;;;5113535;28;20180;-42
2022/07/12 05:48:56;;;;;;;13.37;5.33;;;14.10;99.90;;;;;;5113316;28;20268;-42
2022/07/12 05:54:06;;;;;;;7.87;5.70;;;14.30;99.90;;;;;;5113797;28;20241;-43
2022/07/12 05:56:31;;;;;;;8.63;5.40;;;14.50;99.90;;;;;;5113403;28;20654;-43
2022/07/12 05:58:57;;;;;;;8.53;5.70;;;14.60;99.90;;;;;;5113279;28;20544;-40
2022/07/12 06:01:23;;;;;;;16.73;6.50;;;14.70;99.90;;;;;;5113390;28;20703;-43
2022/07/12 06:03:49;;;;;;;11.77;6.13;;;14.80;99.90;;;;;;5113277;28;20173;-42
2022/07/12 06:06:14;;;;;;;9.23;5.87;;;15.00;99.90;;;;;;5113688;28;20167;-42
2022/07/12 06:08:41;;;;;;;9.77;7.00;;;15.20;99.90;;;;;;5113340;28;20163;-42
2022/07/12 06:11:06;;;;;;;11.00;7.20;;;15.40;99.90;;;;;;5113453;28;20229;-42
2022/07/12 06:13:32;;;;;;;10.37;6.90;;;15.60;99.90;;;;;;5113369;28;20233;-42
2022/07/12 06:15:59;;;;;;;9.73;6.53;;;15.80;99.90;;;;;;5113438;28;20179;-43
2022/07/12 06:18:25;;;;;;;10.13;6.57;;;16.00;99.90;;;;;;5113650;28;20307;-42
2022/07/12 06:20:51;;;;;;;7.83;6.70;;;16.30;99.90;;;;;;5113389;28;20268;-42
2022/07/12 06:23:16;;;;;;;11.27;7.00;;;16.60;99.90;;;;;;5094848;28;20713;-43
2022/07/12 06:25:45;;;;;;;14.30;7.20;;;16.90;99.90;;;;;;5115057;28;20181;-43
2022/07/12 06:28:10;;;;;;;8.43;6.77;;;17.20;99.90;;;;;;5098847;28;20171;-42
2022/07/12 06:30:36;;;;;;;10.90;7.23;;;17.50;99.90;;;;;;5116654;28;20568;-43
2022/07/12 06:33:01;;;;;;;11.40;6.63;;;17.80;99.90;;;;;;5116587;28;20206;-43
2022/07/12 06:35:28;;;;;;;8.07;6.73;;;18.10;99.90;;;;;;5116857;28;20227;-41
2022/07/12 06:37:53;;;;;;;8.47;6.10;;;18.50;99.90;;;;;;5117777;28;20532;-43
2022/07/12 06:40:19;;;;;;;8.53;6.30;;;18.70;99.90;;;;;;5102114;28;20194;-42
2022/07/12 06:42:44;;;;;;;6.83;6.10;;;18.90;99.90;;;;;;5120101;28;20710;-42
2022/07/12 06:45:10;;;;;;;6.40;5.80;;;19.20;99.90;;;;;;5117108;28;20174;-43
2022/07/12 06:47:36;;;;;;;8.07;5.30;;;19.40;99.90;;;;;;5116384;28;20644;-43
2022/07/12 06:50:03;;;;;;;8.60;5.97;;;19.60;99.90;;;;;;5116225;28;20194;-42
2022/07/12 06:52:29;;;;;;;5.47;4.97;;;19.90;99.90;;;;;;5116383;28;20206;-44
2022/07/12 06:54:55;;;;;;;6.23;5.40;;;20.10;99.90;;;;;;5116951;28;20174;-44
2022/07/12 06:57:21;;;;;;;8.13;5.60;;;20.40;99.90;;;;;;5116513;28;20175;-44
2022/07/12 06:59:47;;;;;;;6.00;5.30;;;20.60;99.90;;;;;;5116405;28;20224;-44
2022/07/12 07:02:13;;;;;;;8.10;5.23;;;20.80;99.90;;;;;;5118022;28;20170;-43
2022/07/12 07:04:39;;;;;;;5.90;4.50;;;20.90;99.90;;;;;;5118969;28;20529;-43
2022/07/12 07:07:04;;;;;;;7.60;5.47;;;21.00;99.90;;;;;;5116240;28;20170;-42
2022/07/12 07:09:30;;;;;;;4.97;4.50;;;21.10;99.90;;;;;;5115832;28;20201;-43
2022/07/12 07:11:56;;;;;;;8.97;5.57;;;21.30;99.90;;;;;;5097589;28;20205;-42
2022/07/12 07:14:21;;;;;;;5.33;4.13;;;21.60;99.90;;;;;;5115832;28;20666;-43
2022/07/12 07:16:47;;;;;;;4.90;4.23;;;21.80;99.90;;;;;;5116075;28;20211;-41
2022/07/12 07:19:13;;;;;;;8.13;4.47;;;22.00;99.90;;;;;;5116028;28;20210;-43
2022/07/12 07:21:38;;;;;;;7.83;5.00;;;22.20;99.90;;;;;;5116059;28;20178;-42
2022/07/12 07:24:04;;;;;;;6.63;4.40;;;22.30;99.90;;;;;;5115810;28;20170;-43
2022/07/12 07:26:32;;;;;;;4.60;4.13;;;22.30;99.90;;;;;;5115729;28;20587;-42
2022/07/12 07:31:42;;;;;;;7.30;4.33;;;22.60;99.90;;;;;;5116147;28;20563;-44
2022/07/12 07:34:08;;;;;;;5.10;3.80;;;22.80;99.90;;;;;;5097176;28;20174;-43
2022/07/12 07:36:33;;;;;;;7.50;4.10;;;23.00;99.90;;;;;;5114257;28;20186;-44
2022/07/12 07:38:59;;;;;;;5.10;3.70;;;23.20;99.90;;;;;;5115362;28;20179;-40
2022/07/12 07:41:25;;;;;;;4.57;4.17;;;23.30;99.90;;;;;;5115362;28;20258;-43
2022/07/12 07:43:51;;;;;;;6.30;4.90;;;23.30;99.90;;;;;;5097135;28;20174;-44
2022/07/12 07:46:16;;;;;;;6.97;3.87;;;23.20;99.90;;;;;;5115314;28;20174;-42
2022/07/12 07:48:42;;;;;;;3.97;3.10;;;23.30;99.90;;;;;;5115239;28;20170;-43
2022/07/12 07:51:08;;;;;;;4.73;2.93;;;23.40;99.90;;;;;;5115373;28;20197;-43
2022/07/12 07:53:33;;;;;;;3.53;3.20;;;23.60;99.90;;;;;;5115036;28;20549;-44
2022/07/12 07:56:00;;;;;;;5.33;4.00;;;23.70;99.90;;;;;;5115957;28;20172;-44
2022/07/12 07:58:26;;;;;;;13.90;3.70;;;23.90;99.90;;;;;;5115233;28;20630;-42
2022/07/12 08:00:52;;;;;;;4.00;3.70;;;23.90;99.90;;;;;;5114989;28;20190;-44
2022/07/12 08:03:19;;;;;;;4.33;3.33;;;23.90;99.90;;;;;;5114866;28;20190;-43
2022/07/12 08:05:46;;;;;;;4.33;3.50;;;23.90;99.90;;;;;;5114990;28;20202;-44
2022/07/12 08:08:12;;;;;;;5.00;3.33;;;24.10;99.90;;;;;;5114814;28;20182;-41
2022/07/12 08:10:37;;;;;;;3.40;3.10;;;24.20;99.90;;;;;;5114741;28;20204;-43
2022/07/12 08:13:04;;;;;;;7.93;3.70;;;24.30;99.90;;;;;;5114916;28;20205;-44
2022/07/12 08:15:30;;;;;;;3.97;2.50;;;24.50;99.90;;;;;;5114955;28;20170;-42
2022/07/12 08:17:57;;;;;;;5.43;2.93;;;24.60;99.90;;;;;;5114873;28;20642;-41
2022/07/12 08:20:23;;;;;;;3.93;2.77;;;24.70;99.90;;;;;;5079489;28;20202;-42
2022/07/12 08:22:49;;;;;;;4.23;2.27;;;24.90;99.90;;;;;;5114816;28;20166;-43
2022/07/12 08:25:14;;;;;;;2.73;2.00;;;25.00;99.90;;;;;;5115360;28;20645;-42
2022/07/12 08:27:40;;;;;;;5.00;3.13;;;25.20;99.90;;;;;;5114488;28;20185;-41
2022/07/12 08:30:07;;;;;;;4.37;2.33;;;25.30;99.90;;;;;;5117978;28;20241;-44
2022/07/12 08:32:32;;;;;;;1.97;1.83;;;25.40;99.90;;;;;;5114625;28;20205;-43
2022/07/12 08:34:58;;;;;;;2.27;1.50;;;25.50;99.90;;;;;;5114333;28;20541;-42
2022/07/12 08:37:24;;;;;;;4.00;2.20;;;25.60;99.90;;;;;;5114261;28;20189;-43
2022/07/12 08:39:50;;;;;;;3.33;1.80;;;25.80;99.90;;;;;;5114489;28;20678;-44
2022/07/12 08:42:18;;;;;;;3.20;1.63;;;26.10;99.90;;;;;;5114392;28;20660;-44
2022/07/12 08:44:44;;;;;;;3.83;1.80;;;26.20;99.90;;;;;;5114461;28;20186;-42
2022/07/12 08:47:10;;;;;;;2.93;1.47;;;26.20;99.90;;;;;;5114117;28;20182;-44
2022/07/12 08:49:36;;;;;;;2.83;1.47;;;26.10;99.90;;;;;;5113696;28;20228;-44
2022/07/12 08:52:25;;;;;;;2.20;1.13;;;26.00;99.90;;;;;;5114706;28;20209;-44
2022/07/12 08:54:51;;;;;;;1.10;1.00;;;25.90;99.90;;;;;;5095760;28;20676;-44
2022/07/12 08:57:31;;;;;;;2.87;1.30;;;25.90;99.90;;;;;;5114253;28;20175;-41
2022/07/12 09:00:01;;;;;;;1.80;1.00;;;26.10;99.90;;;;;;5113879;28;20194;-43
2022/07/12 09:02:27;;;;;;;4.10;1.30;;;26.30;99.90;;;;;;5114197;28;20170;-43
2022/07/12 09:05:08;;;;;;;1.17;1.00;;;26.40;99.90;;;;;;5113869;28;20547;-43
2022/07/12 09:07:36;;;;;;;1.50;1.40;;;26.60;99.90;;;;;;5114058;28;20213;-43
2022/07/12 09:10:06;;;;;;;2.80;1.23;;;26.70;99.90;;;;;;5113705;28;20277;-44
2022/07/12 09:12:34;;;;;;;3.10;1.70;;;26.80;99.90;;;;;;5113646;28;20228;-43
2022/07/12 09:15:17;;;;;;;1.50;1.40;;;26.90;99.90;;;;;;5113694;28;20633;-43
2022/07/12 09:18:04;;;;;;;2.10;1.37;;;27.00;99.90;;;;;;5114387;28;20566;-43
2022/07/12 09:20:30;;;;;;;2.63;1.50;;;27.10;99.90;;;;;;5113643;28;20222;-42
2022/07/12 09:23:10;;;;;;;1.73;1.30;;;27.10;99.90;;;;;;5113975;28;20634;-44
2022/07/12 09:25:44;;;;;;;1.63;1.40;;;27.10;99.90;;;;;;5113751;28;20177;-42
2022/07/12 09:28:09;;;;;;;2.07;1.70;;;27.10;99.90;;;;;;5108772;28;20213;-42
2022/07/12 09:30:37;;;;;;;2.07;1.40;;;27.20;99.90;;;;;;5113597;28;20189;-43
2022/07/12 09:36:14;;;;;;;1.57;1.47;;;27.20;99.90;;;;;;5113506;28;20197;-44
2022/07/12 09:38:53;;;;;;;1.80;1.33;;;27.30;99.90;;;;;;5113559;28;20155;-42
2022/07/12 09:41:23;;;;;;;3.93;1.27;;;27.30;99.90;;;;;;5112031;28;20748;-43
2022/07/12 09:43:50;;;;;;;1.37;1.20;;;27.40;99.90;;;;;;5100470;28;20231;-43
2022/07/12 09:46:17;;;;;;;1.13;1.03;;;27.40;99.90;;;;;;5108262;28;20269;-45
2022/07/12 09:48:45;;;;;;;2.27;1.10;;;27.30;99.90;;;;;;5095775;28;20261;-44
2022/07/12 09:51:15;;;;;;;5.47;1.30;;;27.30;99.90;;;;;;5096319;28;20603;-43
2022/07/12 09:53:46;;;;;;;3.07;1.57;;;27.30;99.90;;;;;;5095250;28;20221;-43
2022/07/12 09:56:13;;;;;;;2.47;1.67;;;27.50;99.90;;;;;;5104482;28;20261;-38
2022/07/12 09:58:46;;;;;;;1.50;1.40;;;27.50;99.90;;;;;;5107495;28;20208;-42
2022/07/12 10:01:13;;;;;;;1.30;1.20;;;27.60;99.90;;;;;;5116606;28;20246;-40
2022/07/12 10:03:41;;;;;;;1.33;1.23;;;27.50;99.90;;;;;;5107157;28;20669;-38
2022/07/12 10:06:09;;;;;;;1.52;1.23;;;27.60;99.90;;;;;;5112275;28;20186;-40
2022/07/12 10:08:35;;;;;;;1.17;1.00;;;27.50;99.90;;;;;;5113735;28;20228;-39
2022/07/12 10:11:01;;;;;;;2.13;1.30;;;27.50;99.90;;;;;;5112880;28;20598;-39
2022/07/12 10:13:30;;;;;;;2.00;1.05;;;27.50;99.90;;;;;;5116033;28;20213;-39
2022/07/12 10:16:00;;;;;;;1.10;1.00;;;27.60;99.90;;;;;;5115881;28;20277;-40
2022/07/12 10:18:27;;;;;;;1.20;1.10;;;27.70;99.90;;;;;;5097722;28;20190;-45
2022/07/12 10:20:53;;;;;;;1.40;1.17;;;27.80;99.90;;;;;;5115521;28;20202;-40
2022/07/12 10:23:35;;;;;;;1.50;1.00;;;28.00;99.90;;;;;;5115883;27;20216;-41
2022/07/12 10:26:22;;;;;;;1.30;1.20;;;27.90;99.90;;;;;;5106138;28;20201;-41
2022/07/12 10:28:57;;;;;;;1.45;1.00;;;27.50;99.90;;;;;;5085617;28;20197;-40
2022/07/12 10:31:29;;;;;;;4.65;1.08;;;27.50;99.90;;;;;;5113646;28;20653;-41
2022/07/12 10:34:14;;;;;;;5.00;0.90;;;27.80;99.90;;;;;;5112498;28;20233;-40
2022/07/12 10:36:55;;;;;;;2.33;1.25;;;28.00;99.90;;;;;;5111724;28;20198;-40
2022/07/12 10:39:24;;;;;;;2.45;1.08;;;28.10;99.90;;;;;;5114619;28;20206;-41
2022/07/12 10:42:07;;;;;;;1.45;1.00;;;28.00;99.90;;;;;;5111776;28;20174;-41
2022/07/12 10:44:36;;;;;;;2.08;0.95;;;28.20;99.90;;;;;;5114395;28;20243;-42
2022/07/12 10:47:03;;;;;;;2.35;0.90;;;28.30;99.90;;;;;;5115358;28;20194;-41
2022/07/12 10:49:30;;;;;;;1.08;1.05;;;28.50;99.90;;;;;;5110843;28;20724;-42
2022/07/12 10:52:23;;;;;;;1.33;1.15;;;28.60;99.90;;;;;;5109689;28;20304;-41
2022/07/12 10:54:54;;;;;;;1.08;0.82;;;28.80;99.90;;;;;;5105379;28;20628;-40
2022/07/12 10:57:49;;;;;;;2.60;1.00;;;28.90;99.90;;;;;;5114506;28;20220;-41
2022/07/12 11:00:15;;;;;;;1.25;1.00;;;29.10;99.90;;;;;;5112916;28;20616;-42
2022/07/12 11:02:41;;;;;;;1.73;1.10;;;29.30;99.90;;;;;;5113481;28;20217;-41
2022/07/12 11:05:08;;;;;;;1.10;1.00;;;29.30;99.90;;;;;;5113173;28;20190;-41
2022/07/12 11:07:34;;;;;;;1.17;1.10;;;29.30;99.90;;;;;;5114124;28;20186;-43
2022/07/12 11:10:00;;;;;;;4.32;0.90;;;29.40;99.90;;;;;;5109095;28;20222;-44
2022/07/12 11:12:32;;;;;;;1.60;0.90;;;29.60;99.90;;;;;;5113059;28;20206;-39
2022/07/12 11:15:02;;;;;;;1.60;0.80;;;29.60;99.90;;;;;;5114770;28;20221;-41
2022/07/12 11:17:30;;;;;;;5.13;1.10;;;29.70;99.90;;;;;;5113019;28;20674;-40
2022/07/12 11:20:05;;;;;;;2.05;0.90;;;29.70;99.90;;;;;;5110606;28;20573;-39
2022/07/12 11:22:31;;;;;;;1.30;1.00;;;29.40;98.90;;;;;;5110842;28;20182;-39
2022/07/12 11:24:59;;;;;;;1.33;0.90;;;29.10;97.80;;;;;;5111819;28;20201;-40
2022/07/12 11:27:25;;;;;;;2.22;1.35;;;28.90;99.10;;;;;;5115107;28;20259;-39
2022/07/12 11:30:00;;;;;;;1.13;0.90;;;28.90;99.90;;;;;;5112006;28;20214;-41
2022/07/12 11:32:37;;;;;;;1.38;0.90;;;29.10;99.70;;;;;;5109178;28;20201;-40
2022/07/12 11:35:03;;;;;;;1.10;0.95;;;29.00;99.90;;;;;;5105102;28;20289;-45
2022/07/12 11:37:30;;;;;;;3.15;0.90;;;29.10;97.80;;;;;;5114066;28;20194;-41
2022/07/12 11:39:56;;;;;;;3.22;1.00;;;29.00;99.80;;;;;;5113200;28;20202;-42
2022/07/12 11:42:21;;;;;;;1.50;1.10;;;29.10;99.90;;;;;;5113357;28;20247;-42
2022/07/12 11:44:49;;;;;;;0.90;0.90;;;29.30;99.90;;;;;;5113151;28;20260;-41
2022/07/12 11:47:18;;;;;;;1.05;1.02;;;29.50;99.90;;;;;;5114204;28;20182;-41
2022/07/12 11:49:52;;;;;;;3.92;1.08;;;29.80;99.90;;;;;;5113672;28;20662;-41
2022/07/12 11:52:19;;;;;;;0.82;0.82;;;29.90;99.00;;;;;;5114919;28;20206;-40
2022/07/12 11:54:46;;;;;;;1.95;1.00;;;29.80;99.00;;;;;;5115420;28;20182;-39
2022/07/12 11:57:12;;;;;;;0.90;0.90;;;29.80;99.90;;;;;;5111749;28;20609;-39
2022/07/12 11:59:38;;;;;;;1.27;1.02;;;29.90;97.40;;;;;;5113770;28;20208;-44
2022/07/12 12:02:11;;;;;;;1.52;0.90;;;29.90;99.90;;;;;;5113329;28;20186;-41
2022/07/12 12:04:51;;;;;;;1.67;0.90;;;30.20;99.90;;;;;;5111282;28;20677;-40
2022/07/12 12:07:18;;;;;;;3.45;1.00;;;30.50;99.90;;;;;;5111401;28;20372;-41
2022/07/12 12:10:15;;;;;;;5.97;1.00;;;30.70;99.90;;;;;;5108204;28;20623;-42
2022/07/12 12:12:52;;;;;;;1.23;1.00;;;31.00;99.90;;;;;;5101523;28;20198;-41
2022/07/12 12:15:37;;;;;;;1.02;0.98;;;31.20;99.90;;;;;;5114979;28;20186;-40
2022/07/12 12:18:05;;;;;;;1.10;1.00;;;31.30;99.90;;;;;;5114371;28;20194;-40
2022/07/12 12:20:38;;;;;;;2.80;1.00;;;31.50;99.90;;;;;;5114719;28;20595;-40
2022/07/12 12:23:16;;;;;;;3.30;0.80;;;31.60;99.40;;;;;;5114063;28;20186;-41
2022/07/12 12:25:42;;;;;;;1.30;1.08;;;31.50;99.90;;;;;;5116130;28;20191;-44
2022/07/12 12:28:08;;;;;;;4.70;1.10;;;31.60;99.80;;;;;;5116845;28;20582;-44
2022/07/12 12:30:35;;;;;;;1.77;1.02;;;31.70;99.90;;;;;;5116550;28;20206;-44
2022/07/12 12:33:03;;;;;;;1.65;0.88;;;31.80;98.90;;;;;;5116274;28;20210;-44
2022/07/12 12:35:32;;;;;;;3.20;0.90;;;31.90;99.90;;;;;;5116689;28;20178;-44
2022/07/12 12:38:00;;;;;;;1.10;0.90;;;32.00;99.90;;;;;;5116341;28;20173;-45
2022/07/12 12:40:28;;;;;;;1.67;1.00;;;32.20;97.80;;;;;;5116938;28;20270;-44
2022/07/12 12:43:09;;;;;;;1.90;0.93;;;32.10;97.80;;;;;;5114374;28;20178;-44
2022/07/12 12:45:35;;;;;;;0.90;0.90;;;32.20;96.90;;;;;;5114488;28;20208;-44
2022/07/12 12:48:03;;;;;;;1.13;1.00;;;32.20;99.30;;;;;;5114162;28;20649;-43
2022/07/12 12:50:40;;;;;;;1.08;0.93;;;32.20;99.80;;;;;;5114096;28;20194;-44
2022/07/12 12:53:14;;;;;;;1.35;1.00;;;32.20;99.40;;;;;;5114106;28;20307;-43
2022/07/12 12:55:42;;;;;;;4.10;1.35;;;32.20;99.90;;;;;;5113990;28;20185;-44
2022/07/12 12:58:07;;;;;;;1.70;0.85;;;32.40;98.80;;;;;;5114247;28;20186;-45
2022/07/12 13:00:38;;;;;;;2.22;1.48;;;32.40;94.60;;;;;;5113985;28;20193;-45